createdAt,value
2018-11-10T00:00:16.757Z,7.16
2018-11-10T00:02:48.326Z,7.14
2018-11-10T00:05:19.087Z,7.10
2018-11-10T00:07:48.281Z,7.10
2018-11-10T00:10:17.373Z,7.14
2018-11-10T00:12:47.731Z,7.12
2018-11-10T00:15:18.155Z,7.14
2018-11-10T00:20:23.202Z,7.22
2018-11-10T00:22:52.311Z,7.25
2018-11-10T00:25:21.389Z,7.21
2018-11-10T00:27:50.730Z,7.04
2018-11-10T00:32:55.521Z,6.99
2018-11-10T00:35:24.615Z,6.89
2018-11-10T00:37:53.723Z,6.96
2018-11-10T00:42:58.603Z,6.83
2018-11-10T00:45:27.701Z,6.93
2018-11-10T00:47:56.748Z,6.93
2018-11-10T00:50:25.805Z,6.94
2018-11-10T00:55:30.629Z,6.90
2018-11-10T00:57:59.673Z,6.93
2018-11-10T01:00:28.720Z,6.79
2018-11-10T01:05:33.488Z,6.89
2018-11-10T01:08:02.517Z,6.85
2018-11-10T01:10:31.568Z,6.60
2018-11-10T01:15:36.390Z,6.61
2018-11-10T01:20:41.170Z,6.69
2018-11-10T01:25:45.918Z,6.99
2018-11-10T01:30:52.559Z,6.66
2018-11-10T01:33:21.612Z,6.89
2018-11-10T01:35:50.669Z,6.77
2018-11-10T01:38:19.756Z,6.57
2018-11-10T01:43:24.552Z,6.52
2018-11-10T01:48:29.556Z,6.65
2018-11-10T01:50:59.590Z,6.59
2018-11-10T01:53:28.630Z,6.56
2018-11-10T01:58:33.381Z,6.60
2018-11-10T02:01:03.346Z,6.97
2018-11-10T02:03:32.411Z,7.13
2018-11-10T02:06:05.438Z,7.22
2018-11-10T02:08:34.485Z,6.90
2018-11-10T02:13:39.230Z,6.87
2018-11-10T02:18:43.984Z,6.56
2018-11-10T02:26:24.489Z,6.87
2018-11-10T02:28:53.619Z,6.67
2018-11-10T02:31:22.694Z,6.74
2018-11-10T02:33:51.729Z,6.55
2018-11-10T02:36:20.786Z,6.36
2018-11-10T02:38:49.939Z,6.39
2018-11-10T02:41:19.125Z,6.63
2018-11-10T02:46:23.978Z,6.54
2018-11-10T02:48:53.021Z,6.39
2018-11-10T02:51:22.098Z,6.44
2018-11-10T02:53:51.133Z,6.64
2018-11-10T03:01:31.669Z,6.05
2018-11-10T03:06:36.519Z,6.26
2018-11-10T03:16:44.143Z,6.30
2018-11-10T03:19:13.205Z,6.31
2018-11-10T03:21:42.262Z,6.23
2018-11-10T03:24:11.301Z,6.38
2018-11-10T03:26:40.349Z,6.27
2018-11-10T03:29:09.397Z,6.10
2018-11-10T03:31:38.460Z,5.85
2018-11-10T03:34:07.503Z,5.78
2018-11-10T03:36:36.569Z,5.71
2018-11-10T03:39:06.587Z,5.75
2018-11-10T03:41:35.638Z,5.84
2018-11-10T03:44:05.641Z,5.87
2018-11-10T03:46:34.764Z,5.75
2018-11-10T03:51:39.546Z,5.78
2018-11-10T03:54:08.594Z,5.84
2018-11-10T03:56:37.653Z,5.86
2018-11-10T03:59:06.708Z,5.73
2018-11-10T04:01:35.757Z,5.72
2018-11-10T04:04:04.822Z,5.77
2018-11-10T04:06:33.933Z,5.80
2018-11-10T04:09:02.979Z,5.79
2018-11-10T04:11:32.025Z,6.08
2018-11-10T04:14:01.082Z,6.36
2018-11-10T04:16:30.224Z,6.13
2018-11-10T04:21:34.963Z,6.10
2018-11-10T04:26:39.719Z,5.81
2018-11-10T04:29:09.787Z,5.81
2018-11-10T04:31:38.832Z,5.91
2018-11-10T04:39:19.331Z,5.98
2018-11-10T04:44:29.802Z,6.07
2018-11-10T04:46:58.850Z,5.79
2018-11-10T04:49:28.121Z,5.89
2018-11-10T04:51:57.169Z,5.74
2018-11-10T04:54:26.244Z,5.57
2018-11-10T04:59:30.995Z,5.74
2018-11-10T05:02:01.036Z,5.82
2018-11-10T05:04:30.097Z,6.27
2018-11-10T05:06:59.151Z,6.23
2018-11-10T05:09:28.188Z,6.23
2018-11-10T05:11:57.269Z,6.22
2018-11-10T05:14:26.454Z,6.05
2018-11-10T05:16:55.479Z,6.16
2018-11-10T05:19:24.556Z,6.50
2018-11-10T05:21:54.557Z,6.16
2018-11-10T05:24:23.596Z,6.09
2018-11-10T05:29:28.330Z,5.98
2018-11-10T05:31:57.393Z,6.00
2018-11-10T05:34:26.444Z,5.93
2018-11-10T05:36:55.499Z,5.76
2018-11-10T05:39:24.541Z,5.81
2018-11-10T05:41:54.713Z,5.67
2018-11-10T05:44:23.752Z,5.57
2018-11-10T05:46:52.820Z,5.58
2018-11-10T05:49:21.919Z,5.56
2018-11-10T05:51:50.966Z,5.46
2018-11-10T05:54:20.012Z,5.47
2018-11-10T05:57:03.818Z,5.68
2018-11-10T05:59:42.241Z,5.60
2018-11-10T06:02:24.143Z,5.57
2018-11-10T06:05:07.341Z,5.57
2018-11-10T06:07:37.016Z,5.54
2018-11-10T06:10:06.222Z,5.52
2018-11-10T06:12:35.136Z,5.55
2018-11-10T06:17:39.878Z,5.99
2018-11-10T06:20:08.931Z,6.15
2018-11-10T06:22:38.200Z,6.01
2018-11-10T06:25:08.263Z,5.88
2018-11-10T06:27:37.371Z,6.08
2018-11-10T06:30:06.396Z,5.78
2018-11-10T06:32:35.498Z,5.93
2018-11-10T06:35:04.530Z,5.68
2018-11-10T06:37:33.576Z,5.68
2018-11-10T06:40:02.641Z,5.74
2018-11-10T06:45:07.809Z,6.10
2018-11-10T06:47:36.845Z,5.98
2018-11-10T06:52:41.646Z,5.92
2018-11-10T06:55:11.644Z,6.27
2018-11-10T06:57:40.923Z,6.42
2018-11-10T07:00:09.975Z,6.24
2018-11-10T07:02:39.025Z,6.30
2018-11-10T07:10:19.521Z,6.44
2018-11-10T07:15:24.306Z,6.22
2018-11-10T07:20:29.028Z,6.23
2018-11-10T07:22:58.085Z,6.44
2018-11-10T07:25:27.124Z,6.22
2018-11-10T07:27:56.185Z,6.26
2018-11-10T07:30:25.381Z,6.46
2018-11-10T07:32:54.450Z,6.53
2018-11-10T07:35:23.483Z,6.36
2018-11-10T07:37:53.370Z,6.35
2018-11-10T07:40:22.402Z,6.03
2018-11-10T07:42:51.448Z,6.22
2018-11-10T07:45:20.491Z,6.20
2018-11-10T07:47:49.544Z,6.40
2018-11-10T07:50:19.673Z,6.64
2018-11-10T07:52:48.707Z,6.58
2018-11-10T07:55:17.763Z,6.46
2018-11-10T07:57:48.761Z,6.33
2018-11-10T08:00:23.477Z,6.62
2018-11-10T08:02:52.569Z,7.13
2018-11-10T08:05:21.617Z,7.60
2018-11-10T08:10:26.417Z,7.48
2018-11-10T08:15:31.726Z,8.11
2018-11-10T08:20:36.482Z,8.09
2018-11-10T08:23:05.653Z,7.81
2018-11-10T08:25:34.754Z,8.08
2018-11-10T08:28:03.788Z,8.39
2018-11-10T08:30:32.938Z,8.64
2018-11-10T08:33:01.982Z,8.56
2018-11-10T08:35:32.969Z,8.65
2018-11-10T08:38:04.015Z,8.56
2018-11-10T08:40:34.970Z,8.05
2018-11-10T08:43:04.107Z,7.68
2018-11-10T08:48:08.875Z,7.78
2018-11-10T08:50:37.933Z,7.95
2018-11-10T08:53:07.018Z,8.05
2018-11-10T08:55:36.046Z,8.18
2018-11-10T08:58:05.110Z,7.91
2018-11-10T09:00:34.228Z,7.86
2018-11-10T09:03:03.264Z,7.69
2018-11-10T09:05:32.421Z,7.83
2018-11-10T09:08:01.617Z,8.40
2018-11-10T09:10:32.075Z,10.80
2018-11-10T09:13:02.486Z,13.67
2018-11-10T09:15:31.549Z,14.29
2018-11-10T09:18:00.601Z,15.97
2018-11-10T09:20:30.639Z,19.81
2018-11-10T09:22:59.702Z,20.64
2018-11-10T09:25:28.782Z,21.49
2018-11-10T09:27:59.026Z,20.93
2018-11-10T09:30:28.116Z,19.40
2018-11-10T09:32:57.183Z,18.24
2018-11-10T09:35:26.304Z,20.86
2018-11-10T09:37:55.410Z,21.07
2018-11-10T09:40:24.461Z,20.63
2018-11-10T09:42:53.597Z,24.51
2018-11-10T09:45:22.663Z,26.67
2018-11-10T09:47:51.763Z,27.00
2018-11-10T09:50:20.857Z,20.10
2018-11-10T09:52:50.135Z,22.12
2018-11-10T09:55:22.882Z,22.15
2018-11-10T09:57:53.656Z,23.30
2018-11-10T10:00:25.797Z,27.14
2018-11-10T10:02:54.979Z,27.73
2018-11-10T10:05:24.006Z,28.59
2018-11-10T10:07:53.155Z,29.71
2018-11-10T10:10:23.117Z,26.48
2018-11-10T10:12:52.574Z,23.98
2018-11-10T10:15:21.629Z,22.50
2018-11-10T10:17:50.726Z,18.19
2018-11-10T10:20:19.798Z,20.28
2018-11-10T10:22:49.126Z,19.55
2018-11-10T10:25:18.195Z,22.73
2018-11-10T10:27:47.301Z,24.79
2018-11-10T10:30:18.277Z,24.71
2018-11-10T10:32:47.429Z,23.04
2018-11-10T10:35:16.613Z,26.72
2018-11-10T10:37:46.075Z,27.74
2018-11-10T10:40:15.403Z,29.61
2018-11-10T10:45:20.728Z,24.91
2018-11-10T10:47:51.429Z,27.49
2018-11-10T10:50:20.534Z,24.10
2018-11-10T10:52:49.674Z,24.75
2018-11-10T10:55:19.629Z,27.62
2018-11-10T10:57:48.910Z,30.60
2018-11-10T11:00:18.417Z,32.29
2018-11-10T11:02:57.768Z,31.37
2018-11-10T11:05:26.949Z,30.10
2018-11-10T11:10:31.862Z,33.68
2018-11-10T11:13:01.034Z,32.90
2018-11-10T11:15:30.175Z,32.69
2018-11-10T11:17:59.165Z,30.78
2018-11-10T11:23:04.703Z,30.26
2018-11-10T11:25:33.773Z,30.41
2018-11-10T11:28:02.825Z,32.32
2018-11-10T11:30:31.898Z,31.68
2018-11-10T11:33:00.989Z,30.93
2018-11-10T11:35:30.089Z,32.40
2018-11-10T11:37:59.260Z,31.97
2018-11-10T11:40:28.304Z,31.61
2018-11-10T11:42:57.367Z,30.91
2018-11-10T11:45:26.516Z,29.31
2018-11-10T11:47:55.585Z,29.00
2018-11-10T11:50:24.825Z,26.14
2018-11-10T11:52:54.219Z,29.08
2018-11-10T11:55:32.323Z,28.17
2018-11-10T11:58:02.634Z,23.54
2018-11-10T12:00:32.796Z,23.22
2018-11-10T12:03:02.010Z,25.87
2018-11-10T12:05:31.173Z,27.08
2018-11-10T12:08:00.221Z,27.17
2018-11-10T12:10:30.263Z,26.43
2018-11-10T12:12:59.751Z,25.98
2018-11-10T12:15:29.090Z,25.96
2018-11-10T12:17:58.189Z,25.41
2018-11-10T12:23:04.099Z,24.38
2018-11-10T12:25:34.072Z,24.15
2018-11-10T12:28:03.142Z,22.93
2018-11-10T12:30:32.200Z,22.06
2018-11-10T12:33:01.464Z,23.16
2018-11-10T12:35:30.505Z,24.59
2018-11-10T12:37:59.583Z,23.36
2018-11-10T12:40:28.788Z,24.08
2018-11-10T12:42:57.860Z,24.26
2018-11-10T12:45:26.918Z,24.03
2018-11-10T12:47:55.974Z,24.66
2018-11-10T12:50:25.033Z,23.40
2018-11-10T12:52:54.099Z,23.59
2018-11-10T12:55:23.188Z,24.85
2018-11-10T12:57:52.321Z,24.39
2018-11-10T13:02:57.114Z,25.69
2018-11-10T13:05:26.219Z,25.80
2018-11-10T13:07:55.308Z,25.90
2018-11-10T13:10:24.345Z,26.18
2018-11-10T13:12:53.647Z,25.10
2018-11-10T13:17:58.556Z,24.93
2018-11-10T13:23:03.392Z,26.49
2018-11-10T13:25:32.465Z,26.88
2018-11-10T13:28:01.574Z,25.08
2018-11-10T13:30:30.655Z,26.68
2018-11-10T13:32:59.720Z,24.64
2018-11-10T13:35:30.969Z,25.10
2018-11-10T13:38:00.039Z,25.18
2018-11-10T13:40:30.114Z,21.63
2018-11-10T13:42:59.216Z,21.62
2018-11-10T13:45:28.239Z,22.07
2018-11-10T13:47:58.407Z,21.25
2018-11-10T13:50:27.929Z,19.74
2018-11-10T13:52:57.440Z,20.02
2018-11-10T13:55:26.023Z,17.90
2018-11-10T13:57:55.125Z,17.39
2018-11-10T14:00:24.211Z,18.43
2018-11-10T14:02:53.261Z,17.01
2018-11-10T14:07:58.117Z,17.20
2018-11-10T14:10:27.213Z,16.46
2018-11-10T14:12:56.225Z,17.09
2018-11-10T14:15:25.290Z,16.41
2018-11-10T14:17:56.322Z,16.14
2018-11-10T14:20:25.402Z,14.84
2018-11-10T14:22:56.380Z,15.18
2018-11-10T14:25:25.478Z,15.88
2018-11-10T14:30:31.177Z,15.49
2018-11-10T14:35:37.985Z,14.98
2018-11-10T14:38:07.098Z,14.36
2018-11-10T14:40:36.146Z,13.87
2018-11-10T14:43:05.235Z,13.83
2018-11-10T14:45:34.281Z,13.42
2018-11-10T14:48:03.434Z,13.74
2018-11-10T14:50:32.452Z,13.56
2018-11-10T14:53:01.681Z,13.15
2018-11-10T14:55:34.587Z,12.73
2018-11-10T14:58:03.638Z,12.21
2018-11-10T15:00:32.703Z,12.34
2018-11-10T15:03:01.762Z,12.40
2018-11-10T15:05:30.856Z,12.10
2018-11-10T15:07:59.909Z,11.68
2018-11-10T15:10:28.974Z,11.50
2018-11-10T15:12:58.013Z,11.57
2018-11-10T15:15:27.233Z,11.40
2018-11-10T15:17:56.409Z,10.78
2018-11-10T15:20:25.309Z,10.48
2018-11-10T15:22:54.408Z,10.43
2018-11-10T15:25:23.524Z,10.16
2018-11-10T15:27:52.524Z,10.06
2018-11-10T15:30:23.500Z,10.11
2018-11-10T15:32:54.528Z,10.03
2018-11-10T15:35:23.572Z,9.80
2018-11-10T15:37:52.620Z,9.84
2018-11-10T15:42:57.374Z,9.60
2018-11-10T15:45:26.437Z,9.51
2018-11-10T15:47:55.493Z,9.29
2018-11-10T15:50:24.582Z,9.28
2018-11-10T15:52:53.576Z,9.23
2018-11-10T15:55:23.528Z,9.06
2018-11-10T15:57:53.549Z,8.90
2018-11-10T16:00:22.598Z,8.73
2018-11-10T16:02:51.667Z,8.68
2018-11-10T16:05:20.705Z,8.64
2018-11-10T16:07:50.849Z,8.55
2018-11-10T16:10:20.019Z,8.46
2018-11-10T16:12:48.958Z,8.30
2018-11-10T16:15:18.073Z,8.21
2018-11-10T16:17:47.125Z,8.10
2018-11-10T16:20:16.217Z,7.89
2018-11-10T16:22:45.280Z,7.75
2018-11-10T16:25:14.335Z,7.85
2018-11-10T16:27:43.389Z,7.82
2018-11-10T16:30:12.479Z,7.86
2018-11-10T16:32:41.695Z,8.07
2018-11-10T16:35:10.768Z,8.26
2018-11-10T16:37:39.815Z,8.25
2018-11-10T16:40:08.943Z,8.11
2018-11-10T16:42:38.049Z,7.90
2018-11-10T16:45:07.091Z,7.74
2018-11-10T16:47:37.020Z,7.57
2018-11-10T16:50:06.126Z,7.46
2018-11-10T16:52:35.511Z,7.36
2018-11-10T16:55:04.602Z,7.51
2018-11-10T16:57:33.643Z,7.49
2018-11-10T17:02:38.393Z,7.39
2018-11-10T17:05:07.439Z,7.64
2018-11-10T17:07:36.487Z,7.43
2018-11-10T17:12:41.233Z,7.57
2018-11-10T17:17:46.010Z,7.20
2018-11-10T17:20:15.053Z,7.11
2018-11-10T17:22:44.190Z,7.09
2018-11-10T17:25:13.353Z,6.99
2018-11-10T17:27:42.692Z,7.01
2018-11-10T17:30:11.804Z,7.01
2018-11-10T17:32:40.931Z,7.21
2018-11-10T17:35:09.954Z,7.17
2018-11-10T17:37:39.059Z,7.04
2018-11-10T17:40:08.188Z,7.05
2018-11-10T17:42:37.209Z,6.99
2018-11-10T17:45:06.258Z,7.19
2018-11-10T17:47:35.293Z,7.09
2018-11-10T17:50:04.533Z,6.90
2018-11-10T17:52:33.602Z,6.77
2018-11-10T17:55:02.647Z,6.84
2018-11-10T17:57:31.748Z,6.77
2018-11-10T18:02:37.500Z,6.73
2018-11-10T18:07:42.310Z,6.72
2018-11-10T18:15:23.029Z,6.89
2018-11-10T18:17:52.133Z,6.93
2018-11-10T18:20:21.168Z,6.87
2018-11-10T18:22:50.216Z,6.86
2018-11-10T18:25:19.337Z,6.63
2018-11-10T18:27:48.366Z,6.66
2018-11-10T18:30:17.419Z,6.74
2018-11-10T18:35:22.186Z,6.89
2018-11-10T18:37:51.307Z,6.90
2018-11-10T18:40:20.364Z,6.72
2018-11-10T18:45:25.103Z,6.61
2018-11-10T18:47:54.235Z,6.60
2018-11-10T18:50:23.329Z,6.65
2018-11-10T18:52:52.443Z,6.77
2018-11-10T18:55:21.601Z,6.79
2018-11-10T18:57:50.637Z,6.99
2018-11-10T19:00:19.745Z,7.05
2018-11-10T19:08:02.255Z,7.23
2018-11-10T19:10:31.449Z,7.34
2018-11-10T19:13:00.555Z,7.26
2018-11-10T19:15:29.609Z,7.46
2018-11-10T19:17:58.745Z,7.57
2018-11-10T19:20:27.977Z,7.84
2018-11-10T19:22:57.084Z,7.92
2018-11-10T19:25:26.147Z,7.70
2018-11-10T19:27:55.202Z,7.79
2018-11-10T19:30:24.249Z,7.82
2018-11-10T19:32:53.293Z,8.10
2018-11-10T19:37:58.108Z,8.10
2018-11-10T19:43:02.858Z,7.82
2018-11-10T19:45:31.909Z,7.86
2018-11-10T19:48:01.131Z,7.86
2018-11-10T19:50:30.480Z,8.20
2018-11-10T19:52:59.568Z,8.10
2018-11-10T19:55:29.213Z,8.18
2018-11-10T19:57:58.290Z,8.16
2018-11-10T20:00:27.352Z,8.49
2018-11-10T20:02:56.448Z,8.38
2018-11-10T20:05:25.996Z,8.34
2018-11-10T20:07:55.126Z,8.43
2018-11-10T20:10:24.171Z,8.61
2018-11-10T20:12:53.253Z,8.77
2018-11-10T20:15:22.368Z,8.65
2018-11-10T20:17:51.487Z,8.77
2018-11-10T20:20:20.533Z,8.75
2018-11-10T20:22:49.581Z,8.88
2018-11-10T20:25:18.730Z,8.80
2018-11-10T20:27:47.777Z,8.74
2018-11-10T20:32:53.089Z,8.30
2018-11-10T20:35:22.179Z,8.54
2018-11-10T20:37:51.606Z,8.41
2018-11-10T20:40:20.753Z,8.34
2018-11-10T20:42:49.783Z,8.52
2018-11-10T20:47:54.649Z,8.61
2018-11-10T20:52:59.458Z,8.80
2018-11-10T20:55:28.516Z,8.79
2018-11-10T20:57:57.691Z,8.87
2018-11-10T21:00:26.974Z,8.89
2018-11-10T21:02:56.204Z,8.72
2018-11-10T21:05:25.488Z,8.81
2018-11-10T21:07:54.543Z,8.84
2018-11-10T21:10:23.588Z,8.41
2018-11-10T21:12:52.694Z,8.51
2018-11-10T21:15:21.720Z,8.51
2018-11-10T21:17:50.776Z,8.17
2018-11-10T21:20:19.873Z,8.33
2018-11-10T21:22:48.912Z,8.47
2018-11-10T21:25:18.738Z,8.49
2018-11-10T21:27:47.776Z,8.12
2018-11-10T21:30:16.971Z,8.00
2018-11-10T21:35:22.413Z,7.90
2018-11-10T21:37:51.404Z,8.00
2018-11-10T21:40:20.464Z,7.88
2018-11-10T21:45:26.301Z,7.83
2018-11-10T21:47:55.493Z,8.03
2018-11-10T21:50:24.694Z,7.79
2018-11-10T21:52:53.993Z,7.83
2018-11-10T21:55:23.288Z,7.79
2018-11-10T21:57:52.559Z,7.80
2018-11-10T22:00:21.643Z,7.58
2018-11-10T22:02:52.768Z,7.42
2018-11-10T22:05:21.828Z,7.58
2018-11-10T22:07:50.894Z,7.59
2018-11-10T22:10:22.741Z,7.59
2018-11-10T22:12:51.774Z,7.76
2018-11-10T22:15:20.829Z,7.98
2018-11-10T22:17:49.912Z,7.63
2018-11-10T22:20:19.485Z,7.54
2018-11-10T22:22:48.659Z,7.47
2018-11-10T22:25:17.645Z,7.35
2018-11-10T22:27:47.769Z,7.48
2018-11-10T22:30:16.904Z,7.31
2018-11-10T22:32:46.178Z,7.32
2018-11-10T22:35:15.305Z,7.43
2018-11-10T22:37:44.429Z,7.26
2018-11-10T22:40:16.740Z,7.36
2018-11-10T22:42:56.410Z,7.44
2018-11-10T22:45:37.112Z,7.35
2018-11-10T22:50:42.485Z,7.28
2018-11-10T22:53:11.541Z,7.19
2018-11-10T22:55:40.722Z,7.17
2018-11-10T22:58:09.825Z,7.27
2018-11-10T23:00:39.004Z,7.30
2018-11-10T23:03:08.049Z,7.32
2018-11-10T23:05:37.163Z,7.32
2018-11-10T23:08:06.270Z,7.42
2018-11-10T23:10:35.404Z,7.41
2018-11-10T23:13:04.540Z,7.12
2018-11-10T23:15:33.657Z,7.17
2018-11-10T23:18:02.787Z,7.08
2018-11-10T23:20:31.918Z,6.99
2018-11-10T23:23:01.026Z,7.08
2018-11-10T23:25:30.160Z,7.11
2018-11-10T23:27:59.201Z,7.33
2018-11-10T23:33:04.009Z,7.31
2018-11-10T23:35:33.045Z,7.19
2018-11-10T23:40:38.702Z,7.41
2018-11-10T23:43:07.967Z,7.77
2018-11-10T23:45:36.999Z,7.80
2018-11-10T23:48:08.057Z,7.54
2018-11-10T23:50:37.113Z,7.78
2018-11-10T23:53:06.191Z,7.82
2018-11-10T23:55:35.229Z,7.83
2018-11-10T23:58:06.276Z,7.69
